Time;durP1;ratioP1;P1;durP2;ratioP2;P2;SDS_P1;SDS_P2;PMS_P1;PMS_P2;Temp;Humidity;BMP_temperature;BMP_pressure;BME280_temperature;BME280_humidity;BME280_pressure;Samples;Min_cycle;Max_cycle;Signal;HPM_P1;HPM_P2
2022/05/15 00:00:37;;;;;;;14.85;5.57;;;8.20;1.00;;;;;;4963214;28;20056;-89
2022/05/15 00:00:38;;;;;;;16.45;7.47;;;8.10;1.00;;;;;;4976788;28;20037;-89
2022/05/15 00:03:23;;;;;;;24.90;8.43;;;8.20;1.00;;;;;;5009803;28;20510;-88
2022/05/15 00:05:58;;;;;;;23.20;8.35;;;8.20;4.60;;;;;;4979230;28;20120;-88
2022/05/15 00:08:29;;;;;;;22.70;7.90;;;8.00;1.00;;;;;;4962739;28;20061;-88
2022/05/15 00:10:55;;;;;;;27.58;9.70;;;8.10;1.00;;;;;;4978250;28;20104;-88
2022/05/15 00:13:23;;;;;;;23.17;8.07;;;8.10;15.80;;;;;;4977954;28;20042;-88
2022/05/15 00:15:49;;;;;;;22.20;7.72;;;8.10;55.50;;;;;;4978036;28;20112;-88
2022/05/15 00:18:17;;;;;;;27.67;8.55;;;8.10;88.50;;;;;;4980117;28;20029;-88
2022/05/15 00:20:43;;;;;;;21.15;7.28;;;8.10;68.20;;;;;;4980429;28;20034;-89
2022/05/15 00:23:10;;;;;;;16.88;7.40;;;8.00;27.60;;;;;;4963086;28;20097;-88
2022/05/15 00:25:37;;;;;;;16.17;6.88;;;7.90;12.70;;;;;;4960606;28;20120;-87
2022/05/15 00:28:03;;;;;;;17.15;7.60;;;7.90;31.60;;;;;;4986847;28;20304;-88
2022/05/15 00:30:31;;;;;;;14.80;7.18;;;7.80;15.50;;;;;;4965171;28;20050;-89
2022/05/15 00:32:59;;;;;;;21.85;7.35;;;7.80;1.00;;;;;;4962328;28;20038;-89
2022/05/15 00:35:27;;;;;;;18.85;7.35;;;7.70;1.00;;;;;;4964342;28;20049;-89
2022/05/15 00:37:52;;;;;;;20.58;7.80;;;7.80;64.10;;;;;;4961195;28;20479;-89
2022/05/15 00:40:21;;;;;;;23.23;8.85;;;7.80;93.70;;;;;;5010921;28;20049;-91
2022/05/15 00:42:46;;;;;;;21.83;7.75;;;7.80;99.90;;;;;;4981919;28;20050;-89
2022/05/15 00:45:13;;;;;;;19.20;7.88;;;7.70;81.30;;;;;;4976692;28;20035;-89
2022/05/15 00:47:40;;;;;;;22.55;7.63;;;7.70;54.70;;;;;;4977956;28;20057;-90
2022/05/15 00:50:10;;;;;;;24.58;7.97;;;7.70;92.80;;;;;;4982258;28;20077;-89
2022/05/15 00:52:40;;;;;;;22.85;7.90;;;7.70;67.30;;;;;;4979032;28;20046;-89
2022/05/15 00:55:21;;;;;;;23.13;8.45;;;7.60;51.00;;;;;;4962038;28;20116;-90
2022/05/15 00:57:52;;;;;;;22.17;8.18;;;7.70;99.90;;;;;;4979709;28;20042;-89
2022/05/15 01:00:23;;;;;;;18.60;7.63;;;7.60;95.50;;;;;;4977461;28;20042;-90
2022/05/15 01:02:55;;;;;;;29.30;9.55;;;7.60;77.30;;;;;;4963003;28;20129;-90
2022/05/15 01:05:22;;;;;;;24.77;8.65;;;7.60;99.90;;;;;;4958008;28;20137;-89
2022/05/15 01:07:48;;;;;;;35.45;10.27;;;7.60;99.90;;;;;;4962851;28;20045;-90
2022/05/15 01:10:14;;;;;;;32.22;9.73;;;7.60;99.90;;;;;;4980870;28;20058;-89
2022/05/15 01:12:41;;;;;;;24.65;9.20;;;7.60;99.90;;;;;;4961710;28;20045;-89
2022/05/15 01:15:18;;;;;;;27.42;9.27;;;7.50;99.90;;;;;;4964074;28;20082;-90
2022/05/15 01:17:43;;;;;;;25.77;9.05;;;7.50;99.90;;;;;;4967732;28;20046;-91
2022/05/15 01:20:13;;;;;;;30.83;10.98;;;7.50;99.90;;;;;;4964341;28;20045;-89
2022/05/15 01:22:39;;;;;;;18.52;8.57;;;7.60;99.90;;;;;;4965384;28;20128;-89
2022/05/15 01:25:52;;;;;;;22.88;8.38;;;7.50;99.90;;;;;;4968874;28;20045;-89
2022/05/15 01:28:27;;;;;;;23.73;9.50;;;7.40;99.90;;;;;;4921427;23;20565;-81
2022/05/15 01:30:57;;;;;;;32.03;10.20;;;7.40;99.90;;;;;;4902954;29;20083;-81
2022/05/15 01:33:23;;;;;;;33.17;10.52;;;7.40;99.90;;;;;;4886574;29;20039;-81
2022/05/15 01:35:48;;;;;;;31.13;10.15;;;7.40;99.90;;;;;;4935473;28;20069;-81
2022/05/15 01:38:16;;;;;;;36.90;10.63;;;7.30;99.90;;;;;;4905491;29;20053;-81
2022/05/15 01:40:46;;;;;;;39.05;11.43;;;7.30;99.90;;;;;;4918882;29;20312;-81
2022/05/15 01:43:12;;;;;;;32.05;10.70;;;7.40;99.90;;;;;;4917526;29;20046;-81
2022/05/15 01:45:38;;;;;;;28.25;10.68;;;7.30;99.90;;;;;;4934016;28;20051;-81
2022/05/15 01:48:04;;;;;;;20.73;8.30;;;7.30;99.90;;;;;;4890339;29;20047;-81
2022/05/15 01:50:30;;;;;;;24.35;8.63;;;7.20;99.90;;;;;;4905035;29;20036;-81
2022/05/15 01:52:55;;;;;;;17.90;7.60;;;7.20;99.90;;;;;;4903161;29;20047;-80
2022/05/15 01:55:21;;;;;;;20.77;7.90;;;7.10;99.90;;;;;;4901793;29;20050;-81
2022/05/15 01:57:47;;;;;;;38.75;9.77;;;7.10;99.90;;;;;;4885138;29;20044;-81
2022/05/15 02:00:21;;;;;;;35.63;10.65;;;7.10;99.90;;;;;;4903564;29;20065;-81
2022/05/15 02:02:48;;;;;;;33.25;10.85;;;7.20;99.90;;;;;;4901559;29;20036;-80
2022/05/15 02:05:18;;;;;;;31.35;11.88;;;7.20;99.90;;;;;;4886397;29;20788;-81
2022/05/15 02:07:44;;;;;;;36.15;11.13;;;7.20;99.90;;;;;;4886453;29;20036;-81
2022/05/15 02:10:11;;;;;;;30.52;10.30;;;7.20;99.90;;;;;;4901360;29;20083;-81
2022/05/15 02:12:36;;;;;;;33.38;10.57;;;7.30;99.90;;;;;;4884624;29;20044;-81
2022/05/15 02:15:03;;;;;;;29.23;10.27;;;7.30;99.90;;;;;;4888221;29;20095;-81
2022/05/15 02:17:30;;;;;;;29.67;10.73;;;7.20;99.90;;;;;;4901840;29;20039;-81
2022/05/15 02:19:56;;;;;;;28.45;9.70;;;7.20;99.90;;;;;;4905611;29;20103;-81
2022/05/15 02:22:21;;;;;;;27.40;9.13;;;7.20;99.90;;;;;;4903651;29;20040;-81
2022/05/15 02:24:47;;;;;;;26.30;10.70;;;7.20;99.90;;;;;;4919094;29;20460;-81
2022/05/15 02:27:13;;;;;;;33.90;9.98;;;7.20;99.90;;;;;;4900641;29;20525;-81
2022/05/15 02:29:39;;;;;;;33.92;10.05;;;7.20;99.90;;;;;;4901267;29;20454;-81
2022/05/15 02:32:04;;;;;;;36.03;11.00;;;7.20;99.90;;;;;;4883840;29;20497;-81
2022/05/15 02:34:30;;;;;;;35.05;11.18;;;7.20;99.90;;;;;;4884609;29;20031;-81
2022/05/15 02:36:56;;;;;;;33.55;10.02;;;7.20;99.90;;;;;;4901566;29;20098;-81
2022/05/15 02:39:22;;;;;;;34.53;11.98;;;7.20;99.90;;;;;;4901569;29;20047;-81
2022/05/15 02:41:48;;;;;;;35.50;11.20;;;7.20;99.90;;;;;;4904006;29;20313;-81
2022/05/15 02:44:13;;;;;;;28.92;10.75;;;7.20;99.90;;;;;;4901702;29;20048;-81
2022/05/15 02:46:39;;;;;;;28.80;10.15;;;7.20;99.90;;;;;;4899462;29;20048;-81
2022/05/15 02:51:49;;;;;;;29.27;10.07;;;7.20;99.90;;;;;;4901936;29;20044;-81
2022/05/15 02:54:15;;;;;;;28.70;10.68;;;7.20;99.90;;;;;;4883638;29;20401;-81
2022/05/15 02:56:41;;;;;;;28.52;9.68;;;7.20;99.90;;;;;;4914772;29;20115;-81
2022/05/15 02:59:09;;;;;;;29.55;10.45;;;7.10;99.90;;;;;;4886893;29;20083;-81
2022/05/15 03:01:35;;;;;;;24.52;8.70;;;7.20;99.90;;;;;;4886433;29;20135;-81
2022/05/15 03:04:02;;;;;;;33.35;10.98;;;7.20;99.90;;;;;;4901801;29;20039;-81
2022/05/15 03:06:27;;;;;;;39.53;11.18;;;7.10;99.90;;;;;;4901325;29;20442;-81
2022/05/15 03:08:53;;;;;;;33.45;11.57;;;7.10;99.90;;;;;;4892426;29;20042;-81
2022/05/15 03:11:19;;;;;;;22.67;9.15;;;7.00;99.90;;;;;;4883492;29;20529;-81
2022/05/15 03:13:46;;;;;;;21.02;9.05;;;7.10;99.90;;;;;;4901752;29;20055;-81
2022/05/15 03:16:13;;;;;;;25.85;9.80;;;7.00;99.90;;;;;;4899634;29;20055;-81
2022/05/15 03:18:45;;;;;;;23.83;9.27;;;6.90;99.90;;;;;;4901928;29;20126;-81
2022/05/15 03:21:13;;;;;;;25.38;9.90;;;6.90;99.90;;;;;;4901118;29;20256;-81
2022/05/15 03:23:39;;;;;;;28.90;10.63;;;6.90;99.90;;;;;;4902160;29;20047;-81
2022/05/15 03:26:05;;;;;;;27.83;9.95;;;6.90;99.90;;;;;;4899427;29;20181;-81
2022/05/15 03:28:31;;;;;;;22.38;9.55;;;7.00;99.90;;;;;;4884597;29;20525;-81
2022/05/15 03:30:56;;;;;;;28.60;9.98;;;6.80;99.90;;;;;;4898928;29;20047;-82
2022/05/15 03:33:22;;;;;;;22.90;9.27;;;6.90;99.90;;;;;;4898767;29;20067;-81
2022/05/15 03:35:48;;;;;;;22.08;8.88;;;6.80;99.90;;;;;;4900960;29;20146;-81
2022/05/15 03:38:14;;;;;;;17.33;7.90;;;6.80;99.90;;;;;;4900421;29;20432;-81
2022/05/15 03:40:39;;;;;;;39.05;11.20;;;6.80;99.90;;;;;;4902223;29;20046;-81
2022/05/15 03:43:05;;;;;;;19.90;10.05;;;6.80;99.90;;;;;;4899322;29;20525;-81
2022/05/15 03:45:31;;;;;;;22.67;9.30;;;6.80;99.90;;;;;;4882894;29;20067;-81
2022/05/15 03:47:57;;;;;;;20.52;7.45;;;6.80;99.90;;;;;;4884863;29;20058;-81
2022/05/15 03:50:25;;;;;;;23.88;8.57;;;6.70;99.90;;;;;;4901394;29;20317;-81
2022/05/15 03:52:51;;;;;;;29.85;11.18;;;6.70;99.90;;;;;;4900817;29;20555;-80
2022/05/15 03:55:17;;;;;;;30.30;11.10;;;6.80;99.90;;;;;;4898353;29;20433;-81
2022/05/15 03:57:43;;;;;;;26.73;11.02;;;6.90;99.90;;;;;;4883878;29;20409;-81
2022/05/15 04:00:15;;;;;;;27.48;9.88;;;6.90;99.90;;;;;;4900669;29;20482;-81
2022/05/15 04:02:41;;;;;;;28.95;10.98;;;6.90;99.90;;;;;;4883144;29;20039;-80
2022/05/15 04:05:09;;;;;;;25.35;11.63;;;7.00;99.90;;;;;;4900706;29;20502;-81
2022/05/15 04:07:42;;;;;;;28.63;10.90;;;7.00;99.90;;;;;;4900588;29;20056;-81
2022/05/15 04:10:09;;;;;;;22.73;9.50;;;7.00;99.90;;;;;;4900115;29;20083;-81
2022/05/15 04:12:34;;;;;;;25.05;10.52;;;7.00;99.90;;;;;;4884733;29;20043;-81
2022/05/15 04:15:00;;;;;;;25.23;9.75;;;7.00;99.90;;;;;;4914934;29;20038;-81
2022/05/15 04:17:26;;;;;;;20.92;8.77;;;7.10;99.90;;;;;;4898631;29;20123;-81
2022/05/15 04:19:52;;;;;;;25.02;10.35;;;7.10;99.90;;;;;;4900079;29;20055;-81
2022/05/15 04:22:17;;;;;;;24.38;10.85;;;7.10;99.90;;;;;;4899235;29;20040;-81
2022/05/15 04:24:43;;;;;;;23.52;9.05;;;7.20;99.90;;;;;;4897357;29;20042;-81
2022/05/15 04:27:09;;;;;;;14.85;8.30;;;7.20;99.90;;;;;;4891779;29;20296;-81
2022/05/15 04:29:34;;;;;;;22.27;9.93;;;7.20;99.90;;;;;;4873908;29;20498;-81
2022/05/15 04:32:00;;;;;;;22.25;10.00;;;7.30;99.90;;;;;;4863159;29;20039;-81
2022/05/15 04:34:27;;;;;;;13.98;6.85;;;7.40;99.90;;;;;;4882684;29;20040;-80
2022/05/15 04:36:53;;;;;;;18.92;8.60;;;7.40;99.90;;;;;;4877517;29;20183;-81
2022/05/15 04:39:20;;;;;;;21.30;8.02;;;7.50;99.90;;;;;;4881963;29;20481;-81
2022/05/15 04:41:45;;;;;;;15.43;7.20;;;7.50;99.90;;;;;;4882095;29;20071;-81
2022/05/15 04:44:12;;;;;;;22.30;7.43;;;7.50;99.90;;;;;;4866163;29;20179;-81
2022/05/15 04:46:38;;;;;;;9.75;5.57;;;7.60;99.90;;;;;;4881270;29;20458;-80
2022/05/15 04:49:05;;;;;;;17.60;7.80;;;7.70;99.90;;;;;;4881035;29;20212;-81
2022/05/15 04:51:31;;;;;;;12.77;6.10;;;7.80;99.90;;;;;;4883002;29;20131;-81
2022/05/15 04:53:57;;;;;;;18.83;7.60;;;7.80;99.90;;;;;;4881035;29;20079;-81
2022/05/15 04:56:23;;;;;;;29.83;11.18;;;8.00;99.90;;;;;;4883605;29;20123;-81
2022/05/15 04:58:49;;;;;;;33.25;10.20;;;8.20;99.90;;;;;;4882052;29;20044;-81
2022/05/15 05:01:14;;;;;;;32.15;10.07;;;8.20;99.90;;;;;;4915011;29;20043;-81
2022/05/15 05:03:40;;;;;;;23.73;10.32;;;8.40;99.90;;;;;;4883243;29;20583;-81
2022/05/15 05:06:06;;;;;;;26.02;9.20;;;8.50;99.90;;;;;;4884940;29;20045;-81
2022/05/15 05:08:33;;;;;;;26.63;9.75;;;8.70;99.90;;;;;;4885501;29;20055;-80
2022/05/15 05:10:58;;;;;;;25.05;11.18;;;8.80;99.90;;;;;;4885943;29;20036;-82
2022/05/15 05:13:24;;;;;;;26.83;11.07;;;9.00;99.90;;;;;;4905091;29;20069;-81
2022/05/15 05:15:50;;;;;;;36.88;12.43;;;9.10;99.90;;;;;;4885600;29;20051;-81
2022/05/15 05:18:19;;;;;;;31.20;12.43;;;9.30;99.90;;;;;;4883621;29;20083;-81
2022/05/15 05:20:45;;;;;;;38.33;13.88;;;9.40;99.90;;;;;;4868597;29;20313;-81
2022/05/15 05:23:12;;;;;;;32.40;12.88;;;9.60;99.90;;;;;;4866329;29;20036;-81
2022/05/15 05:25:38;;;;;;;36.03;13.02;;;9.70;99.90;;;;;;4882568;29;20580;-81
2022/05/15 05:28:04;;;;;;;31.90;13.15;;;9.90;99.90;;;;;;4897915;29;20060;-81
2022/05/15 05:30:31;;;;;;;28.85;12.23;;;10.10;99.90;;;;;;4889490;29;20417;-81
2022/05/15 05:32:59;;;;;;;33.03;11.45;;;10.20;99.90;;;;;;4888954;29;20525;-81
2022/05/15 05:35:26;;;;;;;34.88;12.65;;;10.30;99.90;;;;;;4903390;29;20051;-81
2022/05/15 05:37:52;;;;;;;34.20;12.20;;;10.50;99.90;;;;;;4920735;29;20098;-81
2022/05/15 05:40:19;;;;;;;35.25;12.32;;;10.60;99.90;;;;;;4903032;29;20038;-81
2022/05/15 05:42:44;;;;;;;30.67;11.52;;;10.70;99.90;;;;;;4904056;29;20040;-81
2022/05/15 05:45:10;;;;;;;35.72;11.45;;;10.80;99.90;;;;;;4906043;29;20556;-81
2022/05/15 05:47:36;;;;;;;33.38;10.80;;;11.00;99.90;;;;;;4903403;29;20044;-81
2022/05/15 05:50:02;;;;;;;29.90;10.85;;;11.10;94.30;;;;;;4922011;29;20063;-81
2022/05/15 05:52:28;;;;;;;35.40;11.52;;;11.20;27.70;;;;;;4902949;29;20480;-81
2022/05/15 05:54:53;;;;;;;29.73;11.55;;;11.40;1.00;;;;;;4900939;29;20138;-81
2022/05/15 05:57:19;;;;;;;27.42;10.85;;;11.40;1.00;;;;;;4886607;29;20043;-81
2022/05/15 05:59:45;;;;;;;26.10;11.35;;;11.50;1.00;;;;;;4888800;29;20410;-81
2022/05/15 06:02:11;;;;;;;27.20;10.57;;;11.60;1.00;;;;;;4904289;29;20059;-81
2022/05/15 06:04:40;;;;;;;31.67;10.32;;;11.80;99.90;;;;;;4887565;29;20126;-81
2022/05/15 06:07:08;;;;;;;36.15;9.98;;;11.80;99.90;;;;;;4902928;29;20142;-81
2022/05/15 06:09:36;;;;;;;32.05;10.35;;;12.00;99.90;;;;;;4917537;29;20270;-81
2022/05/15 06:12:02;;;;;;;29.27;10.57;;;12.10;99.90;;;;;;4902159;29;20134;-81
2022/05/15 06:14:28;;;;;;;25.98;10.30;;;12.20;99.90;;;;;;4900994;29;20040;-81
2022/05/15 06:16:54;;;;;;;27.63;10.05;;;12.30;99.90;;;;;;4885873;29;20127;-81
2022/05/15 06:19:19;;;;;;;30.83;10.82;;;12.40;99.90;;;;;;4885425;29;20040;-81
2022/05/15 06:21:45;;;;;;;27.42;10.57;;;12.50;99.90;;;;;;4916897;29;20386;-81
2022/05/15 06:24:11;;;;;;;26.83;11.10;;;12.60;99.90;;;;;;4916814;29;20044;-81
2022/05/15 06:26:37;;;;;;;27.55;10.48;;;12.70;99.90;;;;;;4887376;29;20073;-81
2022/05/15 06:29:02;;;;;;;32.30;10.70;;;12.80;99.90;;;;;;4886902;29;20445;-81
2022/05/15 06:31:28;;;;;;;27.13;9.55;;;13.00;99.90;;;;;;4884892;29;20055;-81
2022/05/15 06:33:54;;;;;;;28.52;10.93;;;13.10;99.90;;;;;;4887730;29;20075;-81
2022/05/15 06:36:19;;;;;;;28.15;9.88;;;13.20;99.90;;;;;;4898022;29;20280;-81
2022/05/15 06:38:45;;;;;;;26.25;9.23;;;13.20;99.90;;;;;;4901920;29;20149;-81
2022/05/15 06:41:11;;;;;;;29.52;9.13;;;13.40;99.90;;;;;;4902878;29;20058;-81
2022/05/15 06:43:37;;;;;;;26.25;8.98;;;13.40;97.70;;;;;;4885270;29;20064;-81
2022/05/15 06:46:03;;;;;;;20.67;8.15;;;13.50;94.20;;;;;;4884670;29;20516;-81
2022/05/15 06:48:33;;;;;;;23.98;8.50;;;13.60;91.50;;;;;;4903810;29;20413;-81
2022/05/15 06:50:59;;;;;;;22.80;8.02;;;13.70;83.70;;;;;;4890712;29;20052;-81
2022/05/15 06:53:26;;;;;;;28.17;8.38;;;13.70;31.60;;;;;;4885873;29;20044;-81
2022/05/15 06:58:36;;;;;;;24.00;7.68;;;13.90;10.10;;;;;;4924104;29;20139;-81
2022/05/15 07:01:02;;;;;;;22.60;7.60;;;14.00;19.00;;;;;;4906484;29;20119;-81
2022/05/15 07:03:27;;;;;;;26.13;8.13;;;14.10;1.00;;;;;;4889427;29;20086;-81
2022/05/15 07:05:56;;;;;;;25.10;8.55;;;14.30;1.00;;;;;;4907901;29;20117;-81
2022/05/15 07:08:21;;;;;;;22.98;7.22;;;14.40;1.00;;;;;;4904564;29;20135;-81
2022/05/15 07:10:47;;;;;;;24.58;8.35;;;14.50;1.00;;;;;;4906457;29;20194;-81
2022/05/15 07:13:13;;;;;;;24.17;7.85;;;14.60;1.00;;;;;;4905290;29;20492;-81
2022/05/15 07:15:39;;;;;;;24.13;7.38;;;14.70;1.00;;;;;;4890685;29;20322;-81
2022/05/15 07:18:06;;;;;;;21.23;7.03;;;14.70;1.00;;;;;;4903295;29;20553;-81
2022/05/15 07:20:32;;;;;;;24.30;6.75;;;14.80;1.00;;;;;;4941218;28;20063;-81
2022/05/15 07:22:58;;;;;;;23.63;7.15;;;14.90;1.00;;;;;;4904839;29;20284;-81
2022/05/15 07:25:24;;;;;;;21.33;6.60;;;14.90;1.00;;;;;;4905987;29;20395;-82
2022/05/15 07:27:49;;;;;;;23.63;6.22;;;15.10;1.00;;;;;;4875610;29;20475;-82
2022/05/15 07:30:15;;;;;;;21.83;6.47;;;15.20;1.00;;;;;;4868325;29;20565;-81
2022/05/15 07:32:41;;;;;;;16.52;5.80;;;15.20;99.90;;;;;;4869042;29;20283;-82
2022/05/15 07:35:07;;;;;;;19.10;5.80;;;15.40;1.00;;;;;;4870103;29;20089;-82
2022/05/15 07:37:33;;;;;;;20.45;5.45;;;15.30;99.90;;;;;;4886512;29;20832;-82
2022/05/15 07:39:59;;;;;;;19.38;6.07;;;15.50;99.90;;;;;;4884365;29;20043;-82
2022/05/15 07:42:24;;;;;;;16.48;5.20;;;15.50;99.90;;;;;;4900773;29;20032;-82
2022/05/15 07:44:50;;;;;;;19.73;6.07;;;15.70;99.90;;;;;;4866685;29;20047;-82
2022/05/15 07:47:16;;;;;;;19.33;5.78;;;15.80;99.90;;;;;;4884343;29;20180;-82
2022/05/15 07:49:42;;;;;;;16.83;5.85;;;15.90;99.90;;;;;;4867485;29;20044;-82
2022/05/15 07:52:09;;;;;;;16.15;5.47;;;16.00;99.90;;;;;;4881806;29;20047;-83
2022/05/15 07:54:35;;;;;;;18.88;5.03;;;16.10;99.90;;;;;;4885216;29;20043;-82
2022/05/15 07:57:04;;;;;;;15.13;4.80;;;16.20;99.90;;;;;;4885582;29;20107;-82
2022/05/15 07:59:30;;;;;;;12.43;4.18;;;16.40;99.90;;;;;;4882768;29;20344;-82
2022/05/15 08:01:56;;;;;;;17.02;4.30;;;16.50;99.90;;;;;;4864886;29;20090;-82
2022/05/15 08:04:22;;;;;;;13.73;4.55;;;16.50;99.90;;;;;;4877647;29;20621;-82
2022/05/15 08:09:33;;;;;;;16.13;4.75;;;16.60;99.90;;;;;;4880724;29;20052;-82
2022/05/15 08:11:59;;;;;;;13.80;4.97;;;16.60;99.90;;;;;;4877899;29;20099;-82
2022/05/15 08:14:25;;;;;;;13.90;4.18;;;16.90;99.90;;;;;;4879608;29;20074;-82
2022/05/15 08:16:50;;;;;;;17.77;4.60;;;17.10;99.90;;;;;;4877565;29;20074;-82
2022/05/15 08:24:45;;;;;;;14.70;3.83;;;17.20;99.90;;;;;;4895865;29;20775;-82
2022/05/15 08:27:11;;;;;;;14.65;3.85;;;17.50;99.90;;;;;;4891009;29;20074;-82
2022/05/15 08:29:40;;;;;;;12.68;3.85;;;17.50;99.90;;;;;;4882808;29;20074;-82
2022/05/15 08:32:07;;;;;;;18.10;4.60;;;17.60;99.90;;;;;;4883086;29;20035;-82
2022/05/15 08:34:33;;;;;;;12.93;3.95;;;17.60;99.90;;;;;;4902764;29;20195;-81
2022/05/15 08:37:01;;;;;;;14.15;4.30;;;17.70;99.90;;;;;;4906199;29;20032;-82
2022/05/15 08:39:30;;;;;;;16.60;5.13;;;17.80;99.90;;;;;;4886480;29;20126;-82
2022/05/15 08:42:10;;;;;;;12.88;3.85;;;18.20;99.90;;;;;;4923106;29;20035;-81
2022/05/15 08:44:42;;;;;;;13.95;4.32;;;18.20;99.90;;;;;;4904453;29;20138;-82
2022/05/15 08:47:35;;;;;;;12.40;4.18;;;18.30;99.90;;;;;;4887441;29;20470;-82
2022/05/15 08:50:08;;;;;;;12.60;4.10;;;18.50;99.90;;;;;;4907582;29;20486;-82
2022/05/15 08:52:53;;;;;;;13.77;4.40;;;18.60;99.90;;;;;;4885721;29;20429;-82
2022/05/15 08:55:24;;;;;;;12.70;4.40;;;18.50;99.90;;;;;;4886763;29;20039;-82
2022/05/15 08:58:04;;;;;;;13.82;4.00;;;18.80;99.90;;;;;;4933824;28;21102;-82
2022/05/15 09:00:38;;;;;;;17.23;4.47;;;18.90;99.90;;;;;;4901103;29;20063;-82
2022/05/15 09:03:28;;;;;;;21.08;4.55;;;19.20;99.90;;;;;;4916803;29;20118;-82
2022/05/15 09:06:15;;;;;;;14.55;4.10;;;19.20;99.90;;;;;;4886171;29;20060;-82
2022/05/15 09:08:58;;;;;;;14.90;4.30;;;19.30;99.90;;;;;;4906170;29;20048;-82
2022/05/15 09:12:03;;;;;;;17.05;4.35;;;19.50;99.90;;;;;;4911097;29;20039;-82
2022/05/15 09:14:41;;;;;;;15.35;4.15;;;19.50;99.90;;;;;;4892082;29;20043;-82
2022/05/15 09:17:17;;;;;;;16.85;4.13;;;19.50;99.90;;;;;;4903888;29;20036;-82
2022/05/15 09:19:47;;;;;;;18.27;4.18;;;19.50;99.90;;;;;;4899439;29;20485;-82
2022/05/15 09:22:14;;;;;;;13.82;3.78;;;19.60;99.90;;;;;;4904816;29;20051;-82
2022/05/15 09:24:48;;;;;;;14.93;4.32;;;19.80;99.90;;;;;;4905869;29;20067;-82
2022/05/15 09:27:23;;;;;;;13.27;4.30;;;19.90;99.90;;;;;;4897795;29;20147;-82
2022/05/15 09:29:58;;;;;;;11.68;4.47;;;19.90;99.90;;;;;;4887806;29;20051;-82
2022/05/15 09:32:29;;;;;;;;;;;20.10;99.90;;;;;;4885405;29;20051;-82
2022/05/15 09:34:57;;;;;;;13.15;3.95;;;20.30;99.90;;;;;;4885559;29;20315;-82
2022/05/15 09:40:24;;;;;;;16.10;4.57;;;20.10;99.90;;;;;;4903415;29;20051;-81
2022/05/15 09:45:46;;;;;;;15.20;4.57;;;20.40;99.90;;;;;;4900209;29;20446;-81
2022/05/15 09:48:12;;;;;;;137.95;34.85;;;20.40;99.90;;;;;;4899720;29;20071;-81
2022/05/15 09:50:47;;;;;;;409.58;90.32;;;20.50;99.90;;;;;;4903642;29;20131;-82
2022/05/15 09:53:23;;;;;;;43.55;11.18;;;20.50;99.90;;;;;;4901895;29;20043;-82
2022/05/15 09:56:25;;;;;;;20.05;6.30;;;20.50;99.90;;;;;;4903632;29;20335;-81
2022/05/15 09:58:50;;;;;;;21.60;6.45;;;20.80;99.90;;;;;;4902738;29;20230;-81
2022/05/15 10:01:38;;;;;;;17.55;4.25;;;20.90;99.90;;;;;;4901272;29;20129;-82
2022/05/15 10:04:28;;;;;;;12.82;4.47;;;20.90;99.90;;;;;;4922481;29;20112;-82
2022/05/15 10:06:57;;;;;;;13.57;4.65;;;20.60;99.90;;;;;;4883651;29;20047;-82
2022/05/15 10:09:24;;;;;;;14.05;3.70;;;20.80;99.90;;;;;;4903358;29;20039;-82
2022/05/15 10:11:59;;;;;;;14.93;4.55;;;21.10;99.90;;;;;;4885748;29;20214;-82
2022/05/15 10:14:46;;;;;;;11.88;4.38;;;21.10;99.90;;;;;;4886445;29;20070;-82
2022/05/15 10:17:14;;;;;;;14.68;4.28;;;21.30;99.90;;;;;;4902680;29;20251;-82
2022/05/15 10:19:53;;;;;;;15.75;4.38;;;21.40;99.90;;;;;;4900797;29;20114;-82
2022/05/15 10:22:34;;;;;;;17.67;4.40;;;21.30;99.90;;;;;;4903585;29;20035;-82
2022/05/15 10:25:16;;;;;;;17.15;4.50;;;21.50;99.90;;;;;;4901462;29;20451;-83
2022/05/15 10:27:48;;;;;;;13.63;5.47;;;21.50;99.90;;;;;;4903616;29;20166;-81
2022/05/15 10:30:19;;;;;;;10.07;4.00;;;21.70;99.90;;;;;;4901733;29;20361;-83
2022/05/15 10:33:15;;;;;;;14.88;4.82;;;21.30;99.90;;;;;;4888980;29;20314;-83
2022/05/15 10:36:05;;;;;;;31.23;6.78;;;21.80;99.90;;;;;;4920647;29;20050;-83
2022/05/15 10:38:59;;;;;;;14.82;4.22;;;22.20;99.90;;;;;;4917710;29;20048;-83
2022/05/15 10:41:46;;;;;;;14.95;4.15;;;22.20;99.90;;;;;;4887686;29;20035;-83
2022/05/15 10:44:21;;;;;;;19.98;4.50;;;22.30;99.90;;;;;;4889237;29;20520;-82
2022/05/15 10:46:57;;;;;;;13.30;4.88;;;22.40;99.90;;;;;;4904029;29;20039;-83
2022/05/15 10:49:51;;;;;;;23.50;4.20;;;22.10;99.90;;;;;;4905794;29;20039;-82
2022/05/15 10:52:32;;;;;;;13.10;4.43;;;22.20;99.90;;;;;;4904317;29;20058;-83
2022/05/15 10:58:20;;;;;;;14.80;4.43;;;22.50;99.90;;;;;;4918492;29;20047;-84
2022/05/15 11:01:04;;;;;;;15.65;4.10;;;22.40;99.90;;;;;;4902561;29;20035;-84
2022/05/15 11:03:33;;;;;;;14.70;4.50;;;22.70;99.90;;;;;;4885040;29;20470;-83
2022/05/15 11:06:17;;;;;;;13.02;3.70;;;22.60;99.90;;;;;;4922477;29;20123;-83
2022/05/15 11:08:53;;;;;;;17.33;4.40;;;22.80;99.90;;;;;;4899445;29;20039;-83
2022/05/15 11:11:49;;;;;;;17.35;4.30;;;22.60;99.90;;;;;;4883238;29;20060;-84
2022/05/15 11:14:33;;;;;;;17.10;4.05;;;23.10;99.90;;;;;;4901087;29;20044;-83
2022/05/15 11:17:24;;;;;;;15.70;4.40;;;23.30;99.90;;;;;;4901880;29;20031;-83
2022/05/15 11:19:52;;;;;;;9.55;4.00;;;23.70;99.90;;;;;;4899884;29;20047;-83
2022/05/15 11:22:36;;;;;;;13.52;4.28;;;23.80;99.90;;;;;;4901961;29;20379;-83
2022/05/15 11:25:23;;;;;;;11.38;4.07;;;23.80;99.90;;;;;;4902987;29;20650;-82
2022/05/15 11:27:51;;;;;;;13.77;3.90;;;23.70;99.90;;;;;;4899767;29;20051;-82
2022/05/15 11:30:49;;;;;;;13.27;4.15;;;23.40;99.90;;;;;;4899117;29;20497;-84
2022/05/15 11:33:48;;;;;;;10.15;4.00;;;23.80;99.90;;;;;;4862659;29;20048;-84
2022/05/15 11:36:26;;;;;;;16.27;4.82;;;23.40;99.90;;;;;;4900400;29;20048;-83
2022/05/15 11:38:55;;;;;;;12.70;3.97;;;23.50;99.90;;;;;;4920118;29;20525;-83
2022/05/15 11:41:36;;;;;;;12.95;4.00;;;24.30;99.90;;;;;;4889362;29;20417;-83
2022/05/15 11:44:13;;;;;;;12.40;3.75;;;24.50;99.90;;;;;;4903047;29;20039;-82
2022/05/15 11:46:45;;;;;;;10.82;3.70;;;23.80;99.90;;;;;;4905201;29;20036;-84
2022/05/15 11:49:40;;;;;;;12.38;3.90;;;23.50;97.80;;;;;;4920353;29;20036;-84
2022/05/15 11:52:05;;;;;;;10.65;3.63;;;23.80;99.90;;;;;;4903676;29;20040;-83
2022/05/15 11:54:39;;;;;;;13.05;3.55;;;24.30;99.90;;;;;;4938299;29;20055;-84
2022/05/15 11:57:34;;;;;;;11.85;3.28;;;24.80;99.90;;;;;;4904219;29;20565;-84
2022/05/15 12:00:04;;;;;;;12.60;3.72;;;24.50;99.90;;;;;;4888067;29;20054;-83
2022/05/15 12:02:29;;;;;;;10.85;3.35;;;24.00;98.10;;;;;;4889024;29;20190;-84
2022/05/15 12:05:20;;;;;;;66.45;16.77;;;23.40;96.20;;;;;;4906726;29;20049;-84
2022/05/15 12:07:56;;;;;;;12.35;4.10;;;24.10;99.90;;;;;;4890285;29;20039;-83
2022/05/15 12:10:42;;;;;;;15.48;4.78;;;24.90;99.90;;;;;;4924611;29;20445;-83
2022/05/15 12:13:31;;;;;;;15.32;3.45;;;25.10;99.90;;;;;;4903106;29;20047;-83
2022/05/15 12:16:17;;;;;;;10.20;3.33;;;25.00;98.40;;;;;;4891575;29;20138;-84
2022/05/15 12:18:45;;;;;;;11.15;3.85;;;24.20;94.60;;;;;;4906121;29;20094;-84
2022/05/15 12:21:16;;;;;;;11.82;3.22;;;23.80;92.50;;;;;;4902236;29;20050;-84
2022/05/15 12:26:56;;;;;;;10.63;3.40;;;24.20;93.00;;;;;;4901212;29;20060;-85
2022/05/15 12:29:40;;;;;;;13.02;4.07;;;24.80;93.70;;;;;;4903227;29;20047;-84
2022/05/15 12:32:14;;;;;;;12.55;3.50;;;25.20;96.00;;;;;;4888786;29;20715;-83
2022/05/15 12:34:48;;;;;;;10.15;3.10;;;25.70;96.30;;;;;;4887382;29;20059;-84
2022/05/15 12:37:24;;;;;;;11.48;3.55;;;24.70;90.30;;;;;;4903263;29;20118;-84
2022/05/15 12:39:53;;;;;;;12.18;3.70;;;25.00;92.00;;;;;;4921771;29;20946;-84
2022/05/15 12:42:23;;;;;;;10.38;3.78;;;25.40;90.10;;;;;;4914566;29;20043;-83
2022/05/15 12:45:02;;;;;;;9.82;3.33;;;24.90;83.60;;;;;;4901964;29;20050;-84
2022/05/15 12:47:32;;;;;;;12.65;3.55;;;25.40;91.10;;;;;;4902555;29;20139;-83
2022/05/15 12:50:04;;;;;;;10.57;3.40;;;25.00;87.00;;;;;;4886926;29;20055;-84
2022/05/15 12:52:33;;;;;;;14.02;3.25;;;25.50;87.70;;;;;;4887977;29;20039;-84
2022/05/15 12:55:08;;;;;;;13.00;3.67;;;25.20;83.80;;;;;;4918263;29;20055;-84
2022/05/15 12:57:49;;;;;;;11.63;3.78;;;24.50;73.40;;;;;;4891776;29;20039;-84
2022/05/15 13:00:18;;;;;;;7.65;3.15;;;25.50;81.60;;;;;;4904194;29;20074;-84
2022/05/15 13:02:45;;;;;;;12.55;4.13;;;25.60;84.80;;;;;;4886425;29;20095;-84
2022/05/15 13:05:25;;;;;;;11.23;3.20;;;25.80;83.80;;;;;;4906070;29;20330;-84
2022/05/15 13:07:56;;;;;;;10.52;3.33;;;25.90;79.80;;;;;;4887411;29;20454;-84
2022/05/15 13:10:24;;;;;;;10.65;2.85;;;26.10;81.10;;;;;;4885005;29;20051;-84
2022/05/15 13:13:02;;;;;;;11.25;3.15;;;26.50;81.80;;;;;;4904806;29;20138;-84
2022/05/15 13:15:30;;;;;;;9.57;3.00;;;26.30;81.00;;;;;;4921606;29;20051;-84
2022/05/15 13:18:01;;;;;;;10.20;2.90;;;26.40;78.20;;;;;;4904070;29;20043;-84
2022/05/15 13:20:28;;;;;;;11.50;2.90;;;26.40;74.10;;;;;;4906339;29;20434;-84